Time;durP1;ratioP1;P1;durP2;ratioP2;P2;SDS_P1;SDS_P2;PMS_P1;PMS_P2;Temp;Humidity;BMP_temperature;BMP_pressure;BME280_temperature;BME280_humidity;BME280_pressure;Samples;Min_cycle;Max_cycle;Signal;HPM_P1;HPM_P2
2023/01/02 00:02:11;;;;;;;1999.90;999.90;;;15.50;99.90;;;;;;5012424;28;20600;-72
2023/01/02 00:04:36;;;;;;;1999.90;999.90;;;15.70;99.90;;;;;;5012366;28;20169;-73
2023/01/02 00:07:02;;;;;;;1999.90;999.90;;;15.40;99.90;;;;;;5012232;28;20202;-72
2023/01/02 00:09:27;;;;;;;1999.90;999.90;;;15.50;99.90;;;;;;5011847;28;20661;-72
2023/01/02 00:11:53;;;;;;;1999.90;999.90;;;15.50;99.90;;;;;;5011831;28;20169;-73
2023/01/02 00:14:18;;;;;;;1999.90;999.90;;;15.60;99.90;;;;;;5012317;28;20176;-73
2023/01/02 00:16:44;;;;;;;1999.90;999.90;;;15.50;99.90;;;;;;5012126;28;20192;-73
2023/01/02 00:19:09;;;;;;;1999.90;999.90;;;15.50;99.90;;;;;;5012110;28;20259;-73
2023/01/02 00:21:35;;;;;;;1999.90;999.90;;;15.50;99.90;;;;;;5012118;28;20511;-72
2023/01/02 00:24:01;;;;;;;1999.90;999.90;;;15.40;99.90;;;;;;5012221;28;20162;-72
2023/01/02 00:26:26;;;;;;;1999.90;999.90;;;15.30;99.90;;;;;;5011969;28;20207;-73
2023/01/02 00:28:52;;;;;;;1999.90;999.90;;;15.30;99.90;;;;;;5011919;28;20171;-72
2023/01/02 00:31:17;;;;;;;1999.90;999.90;;;15.20;99.90;;;;;;5012037;28;20695;-72
2023/01/02 00:33:43;;;;;;;1999.90;999.90;;;15.20;99.90;;;;;;5012144;28;20186;-73
2023/01/02 00:36:11;;;;;;;1999.90;999.90;;;15.20;99.90;;;;;;5011810;28;20192;-72
2023/01/02 00:38:37;;;;;;;1999.90;999.90;;;15.20;99.90;;;;;;5012657;28;20641;-73
2023/01/02 00:41:03;;;;;;;1999.90;999.90;;;15.20;99.90;;;;;;5012071;28;20493;-73
2023/01/02 00:43:29;;;;;;;1999.90;999.90;;;15.20;99.90;;;;;;5012009;28;20771;-73
2023/01/02 00:45:55;;;;;;;1999.90;999.90;;;15.20;99.90;;;;;;5011854;28;20433;-73
2023/01/02 00:48:21;;;;;;;1999.90;999.90;;;15.20;99.90;;;;;;5011786;28;20906;-73
2023/01/02 00:50:47;;;;;;;1999.90;999.90;;;15.20;99.90;;;;;;5011730;28;20458;-73
2023/01/02 00:53:12;;;;;;;1999.90;999.90;;;15.20;99.90;;;;;;5011911;28;20818;-74
2023/01/02 00:55:38;;;;;;;1999.90;999.90;;;15.20;99.90;;;;;;5011800;28;20827;-73
2023/01/02 00:58:03;;;;;;;1999.90;999.90;;;15.30;99.90;;;;;;5011622;28;20167;-73
2023/01/02 01:00:29;;;;;;;1999.90;999.90;;;15.30;99.90;;;;;;5011853;28;20216;-73
2023/01/02 01:02:58;;;;;;;1999.90;999.90;;;15.30;99.90;;;;;;5011893;28;20239;-73
2023/01/02 01:05:25;;;;;;;1999.90;999.90;;;15.30;99.90;;;;;;5011631;28;20285;-73
2023/01/02 01:07:51;;;;;;;1999.90;999.90;;;15.30;99.90;;;;;;5011524;28;20413;-74
2023/01/02 01:10:16;;;;;;;1999.90;999.90;;;15.40;99.90;;;;;;5011765;28;20460;-73
2023/01/02 01:12:42;;;;;;;1999.90;999.90;;;15.40;99.90;;;;;;5011818;28;20197;-73
2023/01/02 01:15:08;;;;;;;1999.90;999.90;;;15.40;99.90;;;;;;5011697;28;20663;-73
2023/01/02 01:17:34;;;;;;;1999.90;999.90;;;15.30;99.90;;;;;;5011665;28;20169;-73
2023/01/02 01:19:59;;;;;;;1999.90;999.90;;;15.20;99.90;;;;;;5011463;28;20413;-73
2023/01/02 01:22:25;;;;;;;1999.90;999.90;;;15.20;99.90;;;;;;5013727;28;20260;-73
2023/01/02 01:24:50;;;;;;;1999.90;999.90;;;15.10;99.90;;;;;;5015087;28;20179;-73
2023/01/02 01:27:16;;;;;;;1999.90;999.90;;;15.10;99.90;;;;;;5015332;28;20173;-73
2023/01/02 01:29:42;;;;;;;1999.90;999.90;;;15.20;99.90;;;;;;5014889;28;20191;-73
2023/01/02 01:32:07;;;;;;;1999.90;999.90;;;15.20;99.90;;;;;;5015096;28;20161;-73
2023/01/02 01:34:33;;;;;;;1999.90;999.90;;;15.20;99.90;;;;;;5015005;28;20175;-74
2023/01/02 01:36:58;;;;;;;1999.90;999.90;;;15.20;99.90;;;;;;5014998;28;20569;-73
2023/01/02 01:39:24;;;;;;;1999.90;999.90;;;15.20;99.90;;;;;;5014856;28;20220;-73
2023/01/02 01:41:50;;;;;;;1999.90;999.90;;;15.30;99.90;;;;;;5015034;28;20173;-73
2023/01/02 01:44:51;;;;;;;1999.90;999.90;;;15.30;99.90;;;;;;5014934;28;20188;-74
2023/01/02 01:47:25;;;;;;;1999.90;999.90;;;15.20;99.90;;;;;;5014769;28;20407;-73
2023/01/02 01:49:57;;;;;;;1999.90;999.90;;;15.10;99.90;;;;;;5014536;28;20450;-73
2023/01/02 01:52:27;;;;;;;1999.90;999.90;;;15.00;99.90;;;;;;5014808;28;20737;-73
2023/01/02 01:55:07;;;;;;;1999.90;999.90;;;14.90;99.90;;;;;;5014705;28;20395;-73
2023/01/02 01:57:42;;;;;;;1999.90;999.90;;;15.00;99.90;;;;;;5014550;28;20437;-73
2023/01/02 02:00:08;;;;;;;1999.90;999.90;;;15.00;99.90;;;;;;5014626;28;20401;-73
2023/01/02 02:02:35;;;;;;;1999.90;999.90;;;15.10;99.90;;;;;;5014493;28;20418;-73
2023/01/02 02:05:04;;;;;;;1999.90;999.90;;;15.10;99.90;;;;;;5014524;28;20433;-73
2023/01/02 02:07:30;;;;;;;1999.90;999.90;;;15.10;99.90;;;;;;5014323;28;20415;-73
2023/01/02 02:10:01;;;;;;;1999.90;999.90;;;15.20;99.90;;;;;;5014137;28;20821;-73
2023/01/02 02:12:28;;;;;;;1999.90;999.90;;;15.20;99.90;;;;;;5014490;28;20403;-74
2023/01/02 02:14:54;;;;;;;1999.90;999.90;;;15.20;99.90;;;;;;5014236;28;20401;-73
2023/01/02 02:17:48;;;;;;;1999.90;999.90;;;15.10;99.90;;;;;;5014093;28;20460;-73
2023/01/02 02:21:06;;;;;;;1999.90;999.90;;;15.10;99.90;;;;;;5014179;28;20171;-73
2023/01/02 02:23:50;;;;;;;1999.90;999.90;;;15.20;99.90;;;;;;4934381;29;20447;-72
2023/01/02 02:26:48;;;;;;;1999.90;999.90;;;15.30;99.90;;;;;;5013878;28;20463;-73
2023/01/02 02:29:51;;;;;;;1999.90;999.90;;;15.30;99.90;;;;;;5013705;28;20408;-73
2023/01/02 02:32:33;;;;;;;1999.90;999.90;;;15.30;99.90;;;;;;5013903;28;20462;-73
2023/01/02 02:35:04;;;;;;;1999.90;999.90;;;15.30;99.90;;;;;;5013165;28;20506;-73
2023/01/02 02:37:30;;;;;;;1999.90;999.90;;;15.20;99.90;;;;;;5013858;28;20403;-73
2023/01/02 02:40:18;;;;;;;1999.90;999.90;;;15.20;99.90;;;;;;5013726;28;20401;-73
2023/01/02 02:43:20;;;;;;;1999.90;999.90;;;15.20;99.90;;;;;;5013834;28;20514;-72
2023/01/02 02:46:03;;;;;;;1999.90;999.90;;;15.30;99.90;;;;;;5013706;28;20524;-73
2023/01/02 02:48:55;;;;;;;1999.90;999.90;;;15.20;99.90;;;;;;5013551;28;20394;-73
2023/01/02 02:51:29;;;;;;;1999.90;999.90;;;15.20;99.90;;;;;;5013573;28;20455;-73
2023/01/02 02:54:03;;;;;;;1999.90;999.90;;;15.00;99.90;;;;;;5013674;28;20438;-73
2023/01/02 02:56:30;;;;;;;1999.90;999.90;;;15.00;99.90;;;;;;5013409;28;20516;-73
2023/01/02 02:58:56;;;;;;;1999.90;999.90;;;15.00;99.90;;;;;;5013345;28;20899;-73
2023/01/02 03:01:26;;;;;;;1999.90;999.90;;;14.90;99.90;;;;;;5013431;28;20412;-73
2023/01/02 03:03:51;;;;;;;1999.90;999.90;;;14.80;99.90;;;;;;5013467;28;20401;-73
2023/01/02 03:06:17;;;;;;;1999.90;999.90;;;14.80;99.90;;;;;;5013137;28;21024;-72
2023/01/02 03:09:04;;;;;;;1999.90;999.90;;;14.80;99.90;;;;;;5013151;28;20172;-73
2023/01/02 03:11:57;;;;;;;1999.90;999.90;;;14.80;99.90;;;;;;5013302;28;20181;-72
2023/01/02 03:14:42;;;;;;;1999.90;999.90;;;14.80;99.90;;;;;;5013190;28;20978;-73
2023/01/02 03:17:39;;;;;;;1999.90;999.90;;;14.90;99.90;;;;;;5013012;28;20412;-73
2023/01/02 03:20:12;;;;;;;1999.90;999.90;;;14.80;99.90;;;;;;5002329;28;20466;-73
2023/01/02 03:22:41;;;;;;;1999.90;999.90;;;14.80;99.90;;;;;;5013032;28;20408;-73
2023/01/02 03:25:10;;;;;;;1999.90;999.90;;;14.80;99.90;;;;;;5012860;28;20451;-73
2023/01/02 03:27:41;;;;;;;1999.90;999.90;;;14.80;99.90;;;;;;5012870;28;20431;-72
2023/01/02 03:30:13;;;;;;;1999.90;999.90;;;14.80;99.90;;;;;;5012891;28;20446;-73
2023/01/02 03:32:44;;;;;;;1999.90;999.90;;;14.70;99.90;;;;;;5012969;28;20458;-73
2023/01/02 03:35:14;;;;;;;1999.90;999.90;;;14.70;99.90;;;;;;5012779;28;20451;-73
2023/01/02 03:37:47;;;;;;;1999.90;999.90;;;14.70;99.90;;;;;;5012850;28;20394;-73
2023/01/02 03:40:18;;;;;;;1999.90;999.90;;;14.70;99.90;;;;;;5012810;28;20406;-73
2023/01/02 03:42:52;;;;;;;1999.90;999.90;;;14.70;99.90;;;;;;5012912;28;20785;-73
2023/01/02 03:45:33;;;;;;;1999.90;999.90;;;14.70;99.90;;;;;;5012497;28;20436;-73
2023/01/02 03:48:20;;;;;;;1999.90;999.90;;;14.70;99.90;;;;;;5012376;28;20403;-73
2023/01/02 03:50:55;;;;;;;1999.90;999.90;;;14.70;99.90;;;;;;5012778;28;21175;-73
2023/01/02 03:53:22;;;;;;;1999.90;999.90;;;14.70;99.90;;;;;;5012828;28;20406;-73
2023/01/02 03:56:06;;;;;;;1999.90;999.90;;;14.70;99.90;;;;;;5012637;28;20428;-72
2023/01/02 03:59:00;;;;;;;1999.90;999.90;;;14.80;99.90;;;;;;5012372;28;20461;-73
2023/01/02 04:01:32;;;;;;;1999.90;999.90;;;14.80;99.90;;;;;;4978830;28;20945;-73
2023/01/02 04:04:18;;;;;;;1999.90;999.90;;;14.80;99.90;;;;;;5012569;28;20405;-73
2023/01/02 04:06:49;;;;;;;1999.90;999.90;;;14.70;99.90;;;;;;5012276;28;20438;-73
2023/01/02 04:09:19;;;;;;;1999.90;999.90;;;14.80;99.90;;;;;;5012218;28;20898;-73
2023/01/02 04:11:49;;;;;;;1999.90;999.90;;;14.80;99.90;;;;;;5012420;28;20395;-73
2023/01/02 04:14:33;;;;;;;1999.90;999.90;;;14.80;99.90;;;;;;5012287;28;20404;-73
2023/01/02 04:17:01;;;;;;;1999.90;999.90;;;14.80;99.90;;;;;;5012228;28;20450;-73
2023/01/02 04:19:40;;;;;;;1999.90;999.90;;;14.90;99.90;;;;;;5012189;28;20416;-73
2023/01/02 04:22:12;;;;;;;1999.90;999.90;;;14.90;99.90;;;;;;5012386;28;20450;-73
2023/01/02 04:24:45;;;;;;;1999.90;999.90;;;14.90;99.90;;;;;;5012137;28;20427;-72
2023/01/02 04:27:17;;;;;;;1999.90;999.90;;;14.90;99.90;;;;;;5012154;28;20406;-73
2023/01/02 04:29:42;;;;;;;1999.90;999.90;;;14.90;99.90;;;;;;5011904;28;20452;-72
2023/01/02 04:32:27;;;;;;;1999.90;999.90;;;14.90;99.90;;;;;;5012259;28;20744;-72
2023/01/02 04:34:54;;;;;;;1999.90;999.90;;;14.70;99.90;;;;;;5012467;28;20662;-72
2023/01/02 04:37:32;;;;;;;1999.90;999.90;;;14.90;99.90;;;;;;5012062;28;20405;-73
2023/01/02 04:40:03;;;;;;;1999.90;999.90;;;14.90;99.90;;;;;;5011943;28;20404;-73
2023/01/02 04:42:29;;;;;;;1999.90;999.90;;;14.90;99.90;;;;;;5012257;28;20416;-72
2023/01/02 04:44:55;;;;;;;1999.90;999.90;;;14.80;99.90;;;;;;5012085;28;20779;-72
2023/01/02 04:47:20;;;;;;;1999.90;999.90;;;14.90;99.90;;;;;;5012064;28;20165;-72
2023/01/02 04:49:46;;;;;;;1999.90;999.90;;;14.90;99.90;;;;;;5011067;28;20606;-72
2023/01/02 04:52:11;;;;;;;1999.90;999.90;;;14.80;99.90;;;;;;5011990;28;20168;-72
2023/01/02 04:54:37;;;;;;;1999.90;999.90;;;14.90;99.90;;;;;;5011893;28;20171;-73
2023/01/02 04:57:02;;;;;;;1999.90;999.90;;;14.80;99.90;;;;;;5013500;28;20628;-72
2023/01/02 04:59:28;;;;;;;1999.90;999.90;;;14.80;99.90;;;;;;5015596;28;20211;-72
2023/01/02 05:01:54;;;;;;;1999.90;999.90;;;14.80;99.90;;;;;;5015886;28;20178;-72
2023/01/02 05:04:19;;;;;;;1999.90;999.90;;;14.80;99.90;;;;;;5015675;28;20169;-73
2023/01/02 05:06:45;;;;;;;1999.90;999.90;;;14.70;99.90;;;;;;5015454;28;20227;-72
2023/01/02 05:09:10;;;;;;;1999.90;999.90;;;14.60;99.90;;;;;;5015263;28;20170;-72
2023/01/02 05:11:36;;;;;;;1999.90;999.90;;;14.70;99.90;;;;;;5015556;28;20538;-73
2023/01/02 05:14:01;;;;;;;1999.90;999.90;;;14.70;99.90;;;;;;5015477;28;20161;-73
2023/01/02 05:16:27;;;;;;;1999.90;999.90;;;14.70;99.90;;;;;;5015333;28;20191;-72
2023/01/02 05:18:52;;;;;;;1999.90;999.90;;;14.70;99.90;;;;;;5015260;28;20223;-73
2023/01/02 05:24:03;;;;;;;1999.90;999.90;;;14.60;99.90;;;;;;5015478;28;20179;-72
2023/01/02 05:26:32;;;;;;;1999.90;999.90;;;14.50;99.90;;;;;;5015065;28;20973;-72
2023/01/02 05:28:59;;;;;;;1999.90;999.90;;;14.50;99.90;;;;;;5015261;28;20875;-72
2023/01/02 05:31:26;;;;;;;1999.90;999.90;;;14.50;99.90;;;;;;5015120;28;20483;-72
2023/01/02 05:33:53;;;;;;;1999.90;999.90;;;14.50;99.90;;;;;;5015153;28;20806;-72
2023/01/02 05:36:19;;;;;;;1999.90;999.90;;;14.40;99.90;;;;;;5015154;28;20819;-72
2023/01/02 05:38:45;;;;;;;1999.90;999.90;;;14.40;99.90;;;;;;5014975;28;20422;-72
2023/01/02 05:41:11;;;;;;;1999.90;999.90;;;14.40;99.90;;;;;;5015091;28;20851;-72
2023/01/02 05:43:37;;;;;;;1999.90;999.90;;;14.40;99.90;;;;;;5015008;28;20175;-72
2023/01/02 05:46:14;;;;;;;1999.90;999.90;;;14.40;99.90;;;;;;5014789;28;20197;-72
2023/01/02 05:48:40;;;;;;;1999.90;999.90;;;14.30;99.90;;;;;;5014608;28;20453;-72
2023/01/02 05:51:08;;;;;;;1999.90;999.90;;;14.20;99.90;;;;;;5014750;28;20449;-72
2023/01/02 05:53:34;;;;;;;1999.90;999.90;;;14.20;99.90;;;;;;5014799;28;20412;-72
2023/01/02 05:56:04;;;;;;;1999.90;999.90;;;14.20;99.90;;;;;;5014578;28;20527;-72
2023/01/02 05:58:32;;;;;;;1999.90;999.90;;;14.20;99.90;;;;;;5014367;28;20408;-72
2023/01/02 06:01:03;;;;;;;1999.90;999.90;;;14.20;99.90;;;;;;5014620;28;20450;-73
2023/01/02 06:03:28;;;;;;;1999.90;999.90;;;14.20;99.90;;;;;;5014668;28;20407;-72
2023/01/02 06:05:54;;;;;;;1999.90;999.90;;;14.20;99.90;;;;;;5014430;28;20442;-72
2023/01/02 06:08:20;;;;;;;1999.90;999.90;;;14.20;99.90;;;;;;5013045;28;20644;-72
2023/01/02 06:10:51;;;;;;;1999.90;999.90;;;14.20;99.90;;;;;;5014439;28;20564;-72
2023/01/02 06:13:17;;;;;;;1999.90;999.90;;;14.20;99.90;;;;;;5014404;28;20162;-73
2023/01/02 06:15:42;;;;;;;1999.90;999.90;;;14.20;99.90;;;;;;5014206;28;20951;-73
2023/01/02 06:18:08;;;;;;;1999.90;999.90;;;14.20;99.90;;;;;;5014108;28;20603;-72
2023/01/02 06:20:33;;;;;;;1999.90;999.90;;;14.20;99.90;;;;;;5014291;28;20172;-72
2023/01/02 06:22:59;;;;;;;1999.90;999.90;;;14.30;99.90;;;;;;5014273;28;20173;-72
2023/01/02 06:25:25;;;;;;;1999.90;999.90;;;14.30;99.90;;;;;;5014000;28;20206;-72
2023/01/02 06:27:50;;;;;;;1999.90;999.90;;;14.30;99.90;;;;;;5013793;28;20172;-72
2023/01/02 06:30:16;;;;;;;1999.90;999.90;;;14.30;99.90;;;;;;5014030;28;20555;-72
2023/01/02 06:32:41;;;;;;;1999.90;999.90;;;14.30;99.90;;;;;;5014070;28;20247;-73
2023/01/02 06:35:07;;;;;;;1999.90;999.90;;;14.30;99.90;;;;;;5013931;28;20186;-72
2023/01/02 06:37:33;;;;;;;1999.90;999.90;;;14.20;99.90;;;;;;5014371;28;20704;-73
2023/01/02 06:39:58;;;;;;;1999.90;999.90;;;14.20;99.90;;;;;;5013765;28;20546;-73
2023/01/02 06:42:24;;;;;;;1999.90;999.90;;;14.20;99.90;;;;;;5013785;28;20311;-73
2023/01/02 06:44:49;;;;;;;1999.90;999.90;;;14.60;99.90;;;;;;5013661;28;20171;-73
2023/01/02 06:47:15;;;;;;;1999.90;999.90;;;14.20;99.90;;;;;;5013811;28;20253;-73
2023/01/02 06:49:40;;;;;;;1999.90;999.90;;;14.20;99.90;;;;;;5013416;28;20224;-73
2023/01/02 06:52:06;;;;;;;1999.90;999.90;;;14.20;99.90;;;;;;5013688;28;20159;-73
2023/01/02 06:54:32;;;;;;;1999.90;999.90;;;14.10;99.90;;;;;;5013651;28;20595;-73
2023/01/02 06:56:57;;;;;;;1999.90;999.90;;;14.10;99.90;;;;;;5013278;28;20247;-73
2023/01/02 06:59:23;;;;;;;1999.90;999.90;;;14.00;99.90;;;;;;5013361;28;20171;-73
2023/01/02 07:01:48;;;;;;;1999.90;999.90;;;14.00;99.90;;;;;;5013452;28;20207;-74
2023/01/02 07:04:15;;;;;;;1999.90;999.90;;;13.90;99.90;;;;;;5013638;28;20182;-73
2023/01/02 07:06:41;;;;;;;1999.90;999.90;;;13.90;99.90;;;;;;5013194;28;20228;-73
2023/01/02 07:09:06;;;;;;;1999.90;999.90;;;13.80;1.00;;;;;;5013219;28;20489;-73
2023/01/02 07:11:32;;;;;;;1999.90;999.90;;;13.80;1.00;;;;;;5013174;28;20199;-73
2023/01/02 07:13:58;;;;;;;1999.90;999.90;;;13.70;1.00;;;;;;5013206;28;20219;-73
2023/01/02 07:16:24;;;;;;;1999.90;999.90;;;13.60;1.00;;;;;;5013050;28;20658;-73
2023/01/02 07:18:52;;;;;;;1999.90;999.90;;;13.50;1.00;;;;;;5012834;28;20167;-73
2023/01/02 07:21:19;;;;;;;1999.90;999.90;;;13.40;1.00;;;;;;5013011;28;20502;-73
2023/01/02 07:23:45;;;;;;;1999.90;999.90;;;13.40;1.00;;;;;;5013110;28;20451;-73
2023/01/02 07:26:12;;;;;;;1999.90;999.90;;;13.30;1.00;;;;;;5012805;28;20992;-73
2023/01/02 07:28:38;;;;;;;1999.90;999.90;;;13.30;1.00;;;;;;5012814;28;21041;-73
2023/01/02 07:31:07;;;;;;;1999.90;999.90;;;13.30;1.00;;;;;;5012853;28;20453;-73
2023/01/02 07:33:33;;;;;;;1999.90;999.90;;;13.30;1.00;;;;;;5012920;28;20404;-73
2023/01/02 07:36:02;;;;;;;1999.90;999.90;;;13.20;1.00;;;;;;5012688;28;20437;-73
2023/01/02 07:38:27;;;;;;;1999.90;999.90;;;13.20;1.00;;;;;;5012673;28;20413;-73
2023/01/02 07:40:53;;;;;;;1999.90;999.90;;;13.10;2.40;;;;;;5012768;28;20422;-73
2023/01/02 07:43:20;;;;;;;1999.90;999.90;;;13.00;19.50;;;;;;5012705;28;20169;-73
2023/01/02 07:45:45;;;;;;;1999.90;999.90;;;12.90;31.40;;;;;;5012617;28;20432;-73
2023/01/02 07:48:11;;;;;;;1999.90;999.90;;;12.80;45.20;;;;;;5012454;28;20409;-73
2023/01/02 07:50:36;;;;;;;1999.90;999.90;;;12.80;59.70;;;;;;5012588;28;20208;-73
2023/01/02 07:53:02;;;;;;;1999.90;999.90;;;12.70;86.40;;;;;;5012690;28;20175;-73
2023/01/02 07:55:27;;;;;;;1999.90;999.90;;;12.60;99.40;;;;;;5012470;28;20605;-73
2023/01/02 07:57:53;;;;;;;1999.90;999.90;;;12.60;99.90;;;;;;5012208;28;20174;-73
2023/01/02 08:00:19;;;;;;;1999.90;999.90;;;12.60;99.90;;;;;;5012599;28;20564;-72
2023/01/02 08:02:45;;;;;;;1999.90;999.90;;;12.50;99.90;;;;;;5012464;28;20170;-73
2023/01/02 08:05:11;;;;;;;1999.90;999.90;;;12.60;99.90;;;;;;5012338;28;20454;-72
2023/01/02 08:07:37;;;;;;;1999.90;999.90;;;12.50;99.90;;;;;;5012232;28;20499;-72
2023/01/02 08:10:03;;;;;;;1999.90;999.90;;;12.50;99.90;;;;;;5012211;28;20639;-72
2023/01/02 08:12:28;;;;;;;1999.90;999.90;;;12.40;99.90;;;;;;5012213;28;20172;-72
2023/01/02 08:14:54;;;;;;;1999.90;999.90;;;12.10;99.90;;;;;;5012211;28;20407;-72
2023/01/02 08:17:19;;;;;;;1999.90;999.90;;;12.30;99.90;;;;;;5012044;28;20591;-72
2023/01/02 08:19:45;;;;;;;1999.90;999.90;;;12.30;99.90;;;;;;5012023;28;20174;-72
2023/01/02 08:22:10;;;;;;;1999.90;999.90;;;12.20;99.90;;;;;;5012205;28;20179;-73
2023/01/02 08:24:36;;;;;;;1999.90;999.90;;;12.30;99.90;;;;;;5012102;28;20183;-73
2023/01/02 08:27:02;;;;;;;1999.90;999.90;;;12.20;99.90;;;;;;5012012;28;20211;-73
2023/01/02 08:29:27;;;;;;;1999.90;999.90;;;12.30;99.90;;;;;;5011862;28;20174;-72
2023/01/02 08:31:53;;;;;;;1999.90;999.90;;;12.20;99.90;;;;;;5013587;28;20173;-72
2023/01/02 08:34:18;;;;;;;1999.90;999.90;;;12.20;99.90;;;;;;5016217;28;20181;-72
2023/01/02 08:36:44;;;;;;;1999.90;999.90;;;12.20;99.90;;;;;;5016009;28;20200;-72
2023/01/02 08:39:10;;;;;;;1999.90;999.90;;;12.10;99.90;;;;;;5015810;28;20266;-73
2023/01/02 08:41:37;;;;;;;1999.90;999.90;;;12.10;99.90;;;;;;5008283;28;20189;-73
2023/01/02 08:44:03;;;;;;;1999.90;999.90;;;12.10;99.90;;;;;;5015833;28;20198;-73
2023/01/02 08:46:33;;;;;;;1999.90;999.90;;;12.10;99.90;;;;;;5015845;28;20429;-73
2023/01/02 08:49:00;;;;;;;1999.90;999.90;;;12.10;99.90;;;;;;5015810;28;20408;-73
2023/01/02 08:51:26;;;;;;;1999.90;999.90;;;12.00;99.90;;;;;;5015807;28;20466;-73
2023/01/02 08:53:51;;;;;;;1999.90;999.90;;;12.00;99.90;;;;;;5015854;28;20416;-72
2023/01/02 08:56:20;;;;;;;1999.90;999.90;;;12.00;99.90;;;;;;5015614;28;20783;-72
2023/01/02 08:58:55;;;;;;;1999.90;999.90;;;12.00;99.90;;;;;;5015638;28;20170;-72
2023/01/02 09:01:22;;;;;;;1999.90;999.90;;;11.90;99.90;;;;;;5015871;28;20458;-72
2023/01/02 09:03:49;;;;;;;1999.90;999.90;;;11.90;99.90;;;;;;5015577;28;20911;-73
2023/01/02 09:06:15;;;;;;;1999.90;999.90;;;11.80;99.90;;;;;;5015334;28;20428;-72
2023/01/02 09:08:40;;;;;;;1999.90;999.90;;;11.80;99.90;;;;;;5015182;28;20409;-72
2023/01/02 09:11:13;;;;;;;1999.90;999.90;;;11.70;99.90;;;;;;5015388;28;20208;-72
2023/01/02 09:13:39;;;;;;;1999.90;999.90;;;11.60;99.90;;;;;;5015544;28;20647;-72
2023/01/02 09:16:05;;;;;;;1999.90;999.90;;;11.60;99.90;;;;;;5015205;28;20424;-72
2023/01/02 09:18:31;;;;;;;1999.90;999.90;;;11.60;99.90;;;;;;5015249;28;20165;-72
2023/01/02 09:20:56;;;;;;;1999.90;999.90;;;11.60;99.90;;;;;;5015291;28;20933;-72
2023/01/02 09:23:22;;;;;;;1999.90;999.90;;;11.60;99.90;;;;;;5015311;28;20173;-72
2023/01/02 09:25:48;;;;;;;1999.90;999.90;;;11.60;99.90;;;;;;5013438;28;20291;-71
2023/01/02 09:28:13;;;;;;;1999.90;999.90;;;11.60;99.90;;;;;;5015039;28;20627;-71
2023/01/02 09:30:39;;;;;;;1999.90;999.90;;;11.60;99.90;;;;;;5015098;28;20247;-71
2023/01/02 09:33:04;;;;;;;1999.90;999.90;;;11.60;99.90;;;;;;5015241;28;20173;-71
2023/01/02 09:35:30;;;;;;;1999.90;999.90;;;11.60;99.90;;;;;;5015484;28;20224;-71
2023/01/02 09:37:56;;;;;;;1999.90;999.90;;;11.60;99.90;;;;;;5015381;28;20685;-70
2023/01/02 09:40:22;;;;;;;1999.90;999.90;;;11.50;99.90;;;;;;5015419;28;20180;-71
2023/01/02 09:42:49;;;;;;;1999.90;999.90;;;11.40;99.90;;;;;;5014904;28;20251;-70
2023/01/02 09:45:15;;;;;;;1999.90;999.90;;;11.20;99.90;;;;;;5015739;28;20457;-71
2023/01/02 09:47:44;;;;;;;1999.90;999.90;;;11.10;99.90;;;;;;5014890;28;20404;-71
2023/01/02 09:50:23;;;;;;;1999.90;999.90;;;11.10;99.90;;;;;;5015217;28;20561;-71
2023/01/02 09:52:54;;;;;;;1999.90;999.90;;;11.10;99.90;;;;;;5015470;28;20821;-71
2023/01/02 09:55:48;;;;;;;1999.90;999.90;;;11.10;99.90;;;;;;5015486;28;20424;-71
2023/01/02 09:58:23;;;;;;;1999.90;999.90;;;11.00;99.90;;;;;;5014852;28;20456;-70
2023/01/02 10:00:50;;;;;;;1999.90;999.90;;;11.00;99.90;;;;;;5014511;28;20439;-70
2023/01/02 10:03:39;;;;;;;1999.90;999.90;;;11.00;99.90;;;;;;5014513;28;20454;-70
2023/01/02 10:06:21;;;;;;;1999.90;999.90;;;11.00;99.90;;;;;;5014404;28;20421;-70
2023/01/02 10:09:05;;;;;;;1999.90;999.90;;;11.00;99.90;;;;;;5014315;28;20964;-70
2023/01/02 10:11:49;;;;;;;1999.90;999.90;;;11.00;99.90;;;;;;5014401;28;20447;-70
2023/01/02 10:14:53;;;;;;;1999.90;999.90;;;11.00;99.90;;;;;;5014349;28;20395;-70
2023/01/02 10:17:19;;;;;;;1999.90;999.90;;;10.90;99.90;;;;;;5010040;28;20423;-69
2023/01/02 10:20:07;;;;;;;1999.90;999.90;;;10.80;99.90;;;;;;5014070;28;20414;-70
2023/01/02 10:22:41;;;;;;;1999.90;999.90;;;10.90;99.90;;;;;;5015617;28;20410;-70
2023/01/02 10:25:18;;;;;;;1999.90;999.90;;;10.90;99.90;;;;;;5016075;28;20823;-70
2023/01/02 10:28:40;;;;;;;1999.90;999.90;;;11.00;99.90;;;;;;5015168;28;20450;-71
2023/01/02 10:31:29;;;;;;;1999.90;999.90;;;10.80;99.90;;;;;;4930763;29;20467;-69
2023/01/02 10:34:00;;;;;;;1999.90;999.90;;;10.80;99.90;;;;;;4933864;29;20403;-70
2023/01/02 10:36:37;;;;;;;1999.90;999.90;;;10.80;99.90;;;;;;4995926;28;20432;-71
2023/01/02 10:39:06;;;;;;;1999.90;999.90;;;10.90;99.90;;;;;;5012826;28;20926;-72
2023/01/02 10:41:32;;;;;;;1999.90;999.90;;;10.90;99.90;;;;;;5018583;28;20443;-72
2023/01/02 10:44:17;;;;;;;1999.90;999.90;;;10.90;99.90;;;;;;5023404;28;20424;-70
2023/01/02 10:46:42;;;;;;;1999.90;999.90;;;11.00;99.90;;;;;;5013807;28;20492;-68
2023/01/02 10:49:10;;;;;;;1999.90;999.90;;;11.10;99.90;;;;;;5021589;28;20910;-69
2023/01/02 10:51:41;;;;;;;1999.90;999.90;;;11.10;99.90;;;;;;5015734;28;20713;-69
2023/01/02 10:54:08;;;;;;;1999.90;999.90;;;11.10;99.90;;;;;;5012022;28;20450;-70
2023/01/02 10:56:36;;;;;;;1999.90;999.90;;;11.20;99.90;;;;;;5013010;28;20436;-69
2023/01/02 10:59:03;;;;;;;1999.90;999.90;;;11.20;99.90;;;;;;5013229;28;20455;-70
2023/01/02 11:01:29;;;;;;;1999.90;999.90;;;11.20;99.90;;;;;;5018041;28;20419;-71
2023/01/02 11:03:55;;;;;;;1999.90;999.90;;;11.30;99.90;;;;;;5013369;28;20407;-71
2023/01/02 11:06:22;;;;;;;1999.90;999.90;;;11.30;99.90;;;;;;5012839;28;20550;-70
2023/01/02 11:09:03;;;;;;;1999.90;999.90;;;11.30;99.90;;;;;;5012339;28;20184;-70
2023/01/02 11:11:31;;;;;;;1999.90;999.90;;;11.40;99.90;;;;;;5012767;28;20447;-70
2023/01/02 11:14:06;;;;;;;1999.90;999.90;;;11.50;99.90;;;;;;5009841;28;20447;-70
2023/01/02 11:16:37;;;;;;;1999.90;999.90;;;11.50;99.90;;;;;;5015959;28;20446;-71
2023/01/02 11:19:06;;;;;;;1999.90;999.90;;;11.50;99.90;;;;;;5003576;28;20503;-71
2023/01/02 11:21:35;;;;;;;1999.90;999.90;;;11.60;99.90;;;;;;5012886;28;20462;-71
2023/01/02 11:24:10;;;;;;;1999.90;999.90;;;11.60;99.90;;;;;;5012115;28;20424;-70
2023/01/02 11:26:39;;;;;;;1999.90;999.90;;;11.60;99.90;;;;;;5012409;28;20548;-70
2023/01/02 11:29:17;;;;;;;1999.90;999.90;;;11.70;99.90;;;;;;5012506;28;20419;-70
2023/01/02 11:31:46;;;;;;;1999.90;999.90;;;11.70;99.90;;;;;;5014344;28;20454;-70
2023/01/02 11:34:30;;;;;;;1999.90;999.90;;;11.70;99.90;;;;;;5015684;28;20400;-72
2023/01/02 11:37:15;;;;;;;1999.90;999.90;;;11.80;99.90;;;;;;5012407;28;20430;-72
2023/01/02 11:39:41;;;;;;;1999.90;999.90;;;11.80;99.90;;;;;;5013038;28;20407;-72
2023/01/02 11:45:27;;;;;;;1999.90;999.90;;;11.70;99.90;;;;;;5018711;28;20435;-70
2023/01/02 11:47:59;;;;;;;1999.90;999.90;;;11.70;99.90;;;;;;5017320;28;20408;-70
2023/01/02 11:50:32;;;;;;;1999.90;999.90;;;11.80;99.90;;;;;;5019179;28;21000;-70
2023/01/02 11:53:21;;;;;;;1999.90;999.90;;;11.80;99.90;;;;;;5012431;28;20467;-70
2023/01/02 11:56:05;;;;;;;1999.90;999.90;;;11.90;99.90;;;;;;5016890;28;20465;-70
2023/01/02 11:59:07;;;;;;;1999.90;999.90;;;11.90;99.90;;;;;;5017119;28;20396;-70
2023/01/02 12:01:52;;;;;;;1999.90;999.90;;;11.90;99.90;;;;;;4996946;28;20456;-70
2023/01/02 12:04:17;;;;;;;1999.90;999.90;;;11.90;99.90;;;;;;5017904;28;20407;-70
2023/01/02 12:06:48;;;;;;;1999.90;999.90;;;11.90;99.90;;;;;;5021216;28;20431;-70
2023/01/02 12:09:29;;;;;;;1999.90;999.90;;;11.80;99.90;;;;;;5019273;28;20170;-70
2023/01/02 12:12:00;;;;;;;1999.90;999.90;;;11.80;99.90;;;;;;5020129;28;20421;-70
2023/01/02 12:14:50;;;;;;;1999.90;999.90;;;11.80;99.90;;;;;;5017502;28;20408;-70
2023/01/02 12:17:26;;;;;;;1999.90;999.90;;;11.80;99.90;;;;;;5021082;28;20409;-70
2023/01/02 12:20:10;;;;;;;1999.90;999.90;;;11.90;99.90;;;;;;5019069;28;20396;-70
2023/01/02 12:22:41;;;;;;;1999.90;999.90;;;12.00;99.90;;;;;;5020102;28;20500;-70